Time;durP1;ratioP1;P1;durP2;ratioP2;P2;SDS_P1;SDS_P2;PMS_P1;PMS_P2;Temp;Humidity;BMP_temperature;BMP_pressure;BME280_temperature;BME280_humidity;BME280_pressure;Samples;Min_cycle;Max_cycle;Signal;HPM_P1;HPM_P2
2021/09/16 00:01:53;;;;;;;18.08;11.98;;;14.40;84.80;;;;;;4988369;28;20054;-60
2021/09/16 00:04:20;;;;;;;15.07;10.38;;;14.40;84.90;;;;;;4987787;28;20116;-60
2021/09/16 00:06:47;;;;;;;18.30;10.68;;;14.40;85.00;;;;;;4988745;28;20054;-59
2021/09/16 00:09:14;;;;;;;19.85;11.57;;;14.30;85.20;;;;;;4988327;28;20345;-61
2021/09/16 00:11:40;;;;;;;16.15;10.48;;;14.20;85.30;;;;;;4988135;28;20054;-60
2021/09/16 00:14:07;;;;;;;20.17;10.77;;;14.20;85.50;;;;;;4988578;28;20061;-60
2021/09/16 00:16:34;;;;;;;20.33;11.05;;;14.20;85.40;;;;;;4989447;28;20046;-59
2021/09/16 00:19:01;;;;;;;17.40;11.27;;;14.30;85.50;;;;;;4988321;28;20504;-60
2021/09/16 00:21:28;;;;;;;15.07;10.40;;;14.20;85.40;;;;;;4988824;28;20046;-59
2021/09/16 00:23:55;;;;;;;13.15;8.90;;;14.20;85.20;;;;;;4988985;28;20108;-59
2021/09/16 00:26:21;;;;;;;21.10;10.02;;;14.20;84.80;;;;;;4987996;28;20050;-59
2021/09/16 00:28:48;;;;;;;13.30;9.00;;;14.10;84.70;;;;;;4988480;28;20101;-59
2021/09/16 00:31:15;;;;;;;14.60;8.70;;;14.00;84.70;;;;;;4988051;28;20446;-59
2021/09/16 00:33:42;;;;;;;13.50;8.70;;;14.00;84.90;;;;;;4988313;28;20379;-59
2021/09/16 00:36:09;;;;;;;12.88;8.75;;;13.90;84.90;;;;;;4987717;28;20382;-60
2021/09/16 00:38:36;;;;;;;14.07;9.68;;;13.90;85.10;;;;;;4988070;28;20062;-59
2021/09/16 00:41:04;;;;;;;19.05;10.70;;;13.90;85.20;;;;;;4988014;28;20172;-60
2021/09/16 00:43:31;;;;;;;16.65;8.50;;;13.90;85.30;;;;;;4970870;28;20062;-59
2021/09/16 00:46:04;;;;;;;15.43;10.57;;;13.90;85.30;;;;;;4987813;28;20050;-59
2021/09/16 00:48:31;;;;;;;17.02;9.82;;;13.90;85.80;;;;;;4971640;28;20046;-59
2021/09/16 00:50:58;;;;;;;15.68;11.02;;;13.90;85.60;;;;;;4987341;28;20192;-60
2021/09/16 00:53:27;;;;;;;14.30;10.05;;;13.90;86.20;;;;;;4987441;28;20054;-60
2021/09/16 00:55:54;;;;;;;14.93;9.55;;;13.90;85.60;;;;;;4973481;28;20042;-60
2021/09/16 00:58:21;;;;;;;17.88;10.88;;;13.80;85.50;;;;;;4977557;28;20497;-60
2021/09/16 01:00:48;;;;;;;16.33;9.82;;;13.80;85.70;;;;;;4953940;28;20464;-60
2021/09/16 01:03:15;;;;;;;15.98;9.63;;;13.80;85.60;;;;;;4978541;28;20372;-60
2021/09/16 01:05:41;;;;;;;16.23;10.87;;;13.80;85.20;;;;;;4607294;28;10000239;-60
2021/09/16 01:08:08;;;;;;;17.98;9.75;;;13.70;85.30;;;;;;4985605;28;20053;-58
2021/09/16 01:10:35;;;;;;;22.08;10.60;;;13.70;85.30;;;;;;4987773;28;20135;-60
2021/09/16 01:13:02;;;;;;;18.50;10.48;;;13.70;85.50;;;;;;4969951;28;20042;-59
2021/09/16 01:15:29;;;;;;;18.05;10.65;;;13.70;85.60;;;;;;4986910;28;20054;-59
2021/09/16 01:17:56;;;;;;;16.27;10.73;;;13.70;85.80;;;;;;4986864;28;20256;-58
2021/09/16 01:20:24;;;;;;;14.15;9.48;;;13.70;85.80;;;;;;4987738;28;20524;-59
2021/09/16 01:22:50;;;;;;;16.17;11.02;;;13.60;85.90;;;;;;4987465;28;20050;-59
2021/09/16 01:25:17;;;;;;;25.27;10.43;;;13.60;86.00;;;;;;4969823;28;20390;-59
2021/09/16 01:27:45;;;;;;;19.65;12.30;;;13.60;86.00;;;;;;4991934;28;20125;-60
2021/09/16 01:30:12;;;;;;;16.83;11.10;;;13.60;85.90;;;;;;4987622;28;20047;-60
2021/09/16 01:32:39;;;;;;;25.75;12.13;;;13.60;86.00;;;;;;4966415;28;20169;-60
2021/09/16 01:35:07;;;;;;;17.85;11.75;;;13.60;86.00;;;;;;4986678;28;20497;-60
2021/09/16 01:37:34;;;;;;;15.82;10.55;;;13.60;86.00;;;;;;4980190;28;20575;-60
2021/09/16 01:40:01;;;;;;;17.95;10.77;;;13.60;85.90;;;;;;4986978;28;20056;-60
2021/09/16 01:42:28;;;;;;;19.95;10.68;;;13.60;85.90;;;;;;4985998;28;20054;-60
2021/09/16 01:44:58;;;;;;;19.98;10.90;;;13.50;85.90;;;;;;4969301;28;20047;-59
2021/09/16 01:47:25;;;;;;;18.25;10.60;;;13.50;86.20;;;;;;4986292;28;20050;-59
2021/09/16 01:49:51;;;;;;;16.02;9.30;;;13.50;86.10;;;;;;4986626;28;20093;-59
2021/09/16 01:52:18;;;;;;;20.40;11.57;;;13.40;86.00;;;;;;4986277;28;20054;-59
2021/09/16 01:54:45;;;;;;;25.23;11.90;;;13.40;85.80;;;;;;4969350;28;20139;-59
2021/09/16 01:57:12;;;;;;;23.48;12.82;;;13.40;86.00;;;;;;4985820;28;20509;-58
2021/09/16 01:59:39;;;;;;;22.02;11.43;;;13.40;86.00;;;;;;4985773;28;20043;-59
2021/09/16 02:02:06;;;;;;;25.52;12.50;;;13.50;85.70;;;;;;4987066;28;20359;-59
2021/09/16 02:04:32;;;;;;;20.50;11.32;;;13.40;85.60;;;;;;4986063;28;20061;-59
2021/09/16 02:06:59;;;;;;;25.38;13.65;;;13.40;85.60;;;;;;4986264;28;20104;-59
2021/09/16 02:09:26;;;;;;;26.60;12.77;;;13.40;85.80;;;;;;4968825;28;20057;-60
2021/09/16 02:11:53;;;;;;;21.25;12.75;;;13.40;85.80;;;;;;4986708;28;20509;-60
2021/09/16 02:14:20;;;;;;;31.90;13.65;;;13.30;85.90;;;;;;4985988;28;20058;-58
2021/09/16 02:16:47;;;;;;;27.33;13.90;;;13.30;86.10;;;;;;4986596;28;20051;-58
2021/09/16 02:19:14;;;;;;;22.02;13.45;;;13.30;86.20;;;;;;4985912;28;20061;-59
2021/09/16 02:21:41;;;;;;;25.38;13.93;;;13.30;86.20;;;;;;4986664;28;20101;-59
2021/09/16 02:24:08;;;;;;;29.85;14.20;;;13.30;86.40;;;;;;4986104;28;20050;-60
2021/09/16 02:26:37;;;;;;;29.52;14.57;;;13.30;86.20;;;;;;4986042;28;20054;-60
2021/09/16 02:29:04;;;;;;;24.88;14.43;;;13.30;86.20;;;;;;4986355;28;20054;-59
2021/09/16 02:31:31;;;;;;;27.48;12.95;;;13.30;86.00;;;;;;4986839;28;20050;-60
2021/09/16 02:33:58;;;;;;;19.35;12.52;;;13.30;86.00;;;;;;4985958;28;20461;-60
2021/09/16 02:36:25;;;;;;;21.60;13.50;;;13.30;86.00;;;;;;4985895;28;20057;-59
2021/09/16 02:38:52;;;;;;;24.95;12.05;;;13.30;85.90;;;;;;4985441;28;20482;-59
2021/09/16 02:41:20;;;;;;;21.83;11.77;;;13.20;85.90;;;;;;4985235;28;20039;-59
2021/09/16 02:43:47;;;;;;;20.67;13.40;;;13.10;86.00;;;;;;4985503;28;20050;-59
2021/09/16 02:46:14;;;;;;;20.73;10.27;;;13.10;86.00;;;;;;4985134;28;20050;-60
2021/09/16 02:48:41;;;;;;;23.00;12.18;;;13.10;85.80;;;;;;4985883;28;20119;-59
2021/09/16 02:51:08;;;;;;;17.30;10.68;;;13.00;85.90;;;;;;4985950;28;20074;-60
2021/09/16 02:53:35;;;;;;;23.77;13.80;;;13.00;85.80;;;;;;4984920;28;20122;-59
2021/09/16 02:56:02;;;;;;;27.48;12.77;;;13.00;85.80;;;;;;4985315;28;20065;-61
2021/09/16 02:58:29;;;;;;;21.13;11.43;;;13.10;86.10;;;;;;4985345;28;20564;-59
2021/09/16 03:00:56;;;;;;;20.75;11.13;;;13.10;86.20;;;;;;4985834;28;20050;-60
2021/09/16 03:03:23;;;;;;;20.73;11.93;;;13.10;86.00;;;;;;4985674;28;20051;-59
2021/09/16 03:05:50;;;;;;;19.42;10.70;;;13.00;86.20;;;;;;4988292;28;20054;-60
2021/09/16 03:08:16;;;;;;;16.02;9.93;;;12.90;86.10;;;;;;4972625;28;20062;-58
2021/09/16 03:10:43;;;;;;;18.38;11.45;;;12.90;85.90;;;;;;4988971;28;20129;-59
2021/09/16 03:13:10;;;;;;;19.98;12.05;;;12.90;85.70;;;;;;4989499;28;20077;-60
2021/09/16 03:15:40;;;;;;;23.05;12.52;;;12.90;85.90;;;;;;4989582;28;20497;-59
2021/09/16 03:18:07;;;;;;;24.15;12.57;;;12.80;86.30;;;;;;4989400;28;20124;-60
2021/09/16 03:20:34;;;;;;;23.73;13.82;;;12.80;86.30;;;;;;4989554;28;20046;-60
2021/09/16 03:23:01;;;;;;;22.80;11.80;;;12.70;86.30;;;;;;4979671;28;20054;-61
2021/09/16 03:25:27;;;;;;;25.73;13.88;;;12.70;86.30;;;;;;4989465;28;20077;-59
2021/09/16 03:27:54;;;;;;;22.88;14.05;;;12.80;86.60;;;;;;4989642;28;20104;-59
2021/09/16 03:30:21;;;;;;;22.48;13.52;;;12.80;86.70;;;;;;4972168;28;20058;-59
2021/09/16 03:32:48;;;;;;;25.23;12.50;;;12.80;86.60;;;;;;4972013;28;20046;-59
2021/09/16 03:35:15;;;;;;;23.05;13.35;;;12.80;86.60;;;;;;4989461;28;20560;-59
2021/09/16 03:37:41;;;;;;;27.35;14.55;;;12.80;86.50;;;;;;4988994;28;20050;-59
2021/09/16 03:40:09;;;;;;;25.38;14.90;;;12.70;86.60;;;;;;4989916;28;20056;-60
2021/09/16 03:42:36;;;;;;;27.23;12.73;;;12.70;86.90;;;;;;4989255;28;20046;-58
2021/09/16 03:45:03;;;;;;;23.98;14.40;;;12.60;87.00;;;;;;4969874;28;20047;-60
2021/09/16 03:47:30;;;;;;;23.73;13.05;;;12.70;87.10;;;;;;4978579;28;20138;-60
2021/09/16 03:49:57;;;;;;;24.67;14.27;;;12.70;86.80;;;;;;4989444;28;20050;-59
2021/09/16 03:52:24;;;;;;;25.05;13.73;;;12.70;86.80;;;;;;4989536;28;20564;-59
2021/09/16 03:54:51;;;;;;;22.73;13.73;;;12.70;86.50;;;;;;4988017;28;20069;-60
2021/09/16 03:57:18;;;;;;;29.02;12.27;;;12.70;86.30;;;;;;4987823;28;20046;-59
2021/09/16 03:59:45;;;;;;;23.85;13.25;;;12.60;86.30;;;;;;4989228;28;20410;-59
2021/09/16 04:02:11;;;;;;;20.80;11.93;;;12.60;86.30;;;;;;4969426;28;20050;-59
2021/09/16 04:04:38;;;;;;;16.65;10.05;;;12.60;86.60;;;;;;4971369;28;20331;-60
2021/09/16 04:07:05;;;;;;;20.42;12.68;;;12.60;86.20;;;;;;4988532;28;20046;-59
2021/09/16 04:09:32;;;;;;;21.08;12.93;;;12.60;86.10;;;;;;4988953;28;20046;-59
2021/09/16 04:11:59;;;;;;;25.23;12.07;;;12.50;86.30;;;;;;4988445;28;20054;-59
2021/09/16 04:14:26;;;;;;;26.35;14.93;;;12.50;86.40;;;;;;4988768;28;20057;-59
2021/09/16 04:16:53;;;;;;;22.98;12.55;;;12.50;86.60;;;;;;4988035;28;20050;-59
2021/09/16 04:19:20;;;;;;;23.15;12.70;;;12.50;86.70;;;;;;4970985;28;20050;-59
2021/09/16 04:21:47;;;;;;;19.90;11.95;;;12.50;86.70;;;;;;4988970;28;20480;-59
2021/09/16 04:24:14;;;;;;;18.17;9.82;;;12.50;86.90;;;;;;4988741;28;20521;-60
2021/09/16 04:26:41;;;;;;;17.85;11.13;;;12.40;86.80;;;;;;4971087;28;20429;-60
2021/09/16 04:29:08;;;;;;;19.17;11.18;;;12.50;87.00;;;;;;4970520;28;20043;-60
2021/09/16 04:31:35;;;;;;;19.40;11.02;;;12.50;86.90;;;;;;4988115;28;20132;-60
2021/09/16 04:34:02;;;;;;;16.92;9.55;;;12.50;86.80;;;;;;4988295;28;20074;-60
2021/09/16 04:36:28;;;;;;;20.42;10.30;;;12.40;86.80;;;;;;4988684;28;20054;-60
2021/09/16 04:38:56;;;;;;;19.85;9.30;;;12.40;86.60;;;;;;4988072;28;20142;-60
2021/09/16 04:41:23;;;;;;;15.68;8.75;;;12.30;86.50;;;;;;4988091;28;20054;-59
2021/09/16 04:43:49;;;;;;;14.35;8.43;;;12.30;86.60;;;;;;4988457;28;20050;-59
2021/09/16 04:46:16;;;;;;;18.67;9.10;;;12.30;86.50;;;;;;4988003;28;20093;-60
2021/09/16 04:48:43;;;;;;;16.65;9.32;;;12.20;86.40;;;;;;4987518;28;20109;-59
2021/09/16 04:51:10;;;;;;;17.63;9.73;;;12.20;86.50;;;;;;4971129;28;20059;-59
2021/09/16 04:53:37;;;;;;;15.85;8.48;;;12.20;86.50;;;;;;4988090;28;20046;-59
2021/09/16 04:56:04;;;;;;;13.70;8.10;;;12.20;86.40;;;;;;4988145;28;20057;-61
2021/09/16 04:58:31;;;;;;;14.45;8.30;;;12.20;86.50;;;;;;4987697;28;20061;-59
2021/09/16 05:00:57;;;;;;;17.30;9.88;;;12.20;86.50;;;;;;4988232;28;20050;-60
2021/09/16 05:03:24;;;;;;;13.00;8.50;;;12.20;86.60;;;;;;4987700;28;20141;-59
2021/09/16 05:05:51;;;;;;;15.75;9.07;;;12.20;86.80;;;;;;4988128;28;20038;-59
2021/09/16 05:08:18;;;;;;;11.38;8.00;;;12.20;86.50;;;;;;4988007;28;20545;-59
2021/09/16 05:10:45;;;;;;;14.95;8.10;;;12.20;86.50;;;;;;4987971;28;20050;-59
2021/09/16 05:13:12;;;;;;;16.23;10.30;;;12.20;86.70;;;;;;4987952;28;20065;-60
2021/09/16 05:15:38;;;;;;;14.40;9.45;;;12.20;86.80;;;;;;4987785;28;20500;-60
2021/09/16 05:18:07;;;;;;;15.57;9.55;;;12.30;86.80;;;;;;4985998;28;20140;-60
2021/09/16 05:20:34;;;;;;;16.52;9.40;;;12.20;86.70;;;;;;4987449;28;20098;-60
2021/09/16 05:23:01;;;;;;;14.48;8.85;;;12.30;87.40;;;;;;4970610;28;20101;-61
2021/09/16 05:25:28;;;;;;;20.25;9.85;;;12.20;86.70;;;;;;4987548;28;20112;-60
2021/09/16 05:27:55;;;;;;;23.23;10.60;;;12.20;86.70;;;;;;4955480;28;20274;-59
2021/09/16 05:30:21;;;;;;;17.75;8.98;;;12.20;86.80;;;;;;4978488;28;20067;-59
2021/09/16 05:32:48;;;;;;;19.58;9.43;;;12.30;86.60;;;;;;4987541;28;20050;-63
2021/09/16 05:35:15;;;;;;;17.27;9.07;;;12.30;87.00;;;;;;4986162;28;20046;-60
2021/09/16 05:37:45;;;;;;;15.45;10.13;;;12.30;86.30;;;;;;4985433;28;20058;-59
2021/09/16 05:40:12;;;;;;;13.18;8.80;;;12.30;86.30;;;;;;4980082;28;20050;-60
2021/09/16 05:42:39;;;;;;;13.82;9.32;;;12.30;86.10;;;;;;4979324;28;20074;-59
2021/09/16 05:45:07;;;;;;;19.48;8.85;;;12.20;86.10;;;;;;4978944;28;20062;-59
2021/09/16 05:47:34;;;;;;;16.08;9.07;;;12.10;86.30;;;;;;4983448;28;20108;-60
2021/09/16 05:50:02;;;;;;;19.17;8.25;;;12.10;86.40;;;;;;4986841;28;20042;-59
2021/09/16 05:52:29;;;;;;;18.33;9.55;;;12.10;86.40;;;;;;4986984;28;20561;-59
2021/09/16 05:54:56;;;;;;;16.15;8.13;;;12.10;86.50;;;;;;4974945;28;20508;-60
2021/09/16 05:57:23;;;;;;;19.60;8.80;;;12.10;86.70;;;;;;4969303;28;20050;-60
2021/09/16 05:59:50;;;;;;;16.50;8.85;;;12.10;86.60;;;;;;4984436;28;20054;-59
2021/09/16 06:02:19;;;;;;;16.92;9.57;;;12.10;86.50;;;;;;4987171;28;20058;-59
2021/09/16 06:04:46;;;;;;;21.25;10.85;;;12.10;86.60;;;;;;4987289;28;20050;-61
2021/09/16 06:07:12;;;;;;;21.25;10.35;;;12.10;86.80;;;;;;4986985;28;20050;-59
2021/09/16 06:09:39;;;;;;;24.00;11.07;;;12.20;87.20;;;;;;4987558;28;20287;-58
2021/09/16 06:12:07;;;;;;;21.02;12.77;;;12.30;87.20;;;;;;4986975;28;20043;-60
2021/09/16 06:14:34;;;;;;;25.63;12.30;;;12.40;87.30;;;;;;4986622;28;20485;-60
2021/09/16 06:17:01;;;;;;;27.33;14.00;;;12.40;87.30;;;;;;4969332;28;20145;-57
2021/09/16 06:19:28;;;;;;;20.20;10.63;;;12.50;87.30;;;;;;4987158;28;20066;-58
2021/09/16 06:21:55;;;;;;;23.38;11.30;;;12.50;86.80;;;;;;4978129;28;20124;-59
2021/09/16 06:24:22;;;;;;;20.27;10.38;;;12.50;86.80;;;;;;4981367;28;20341;-56
2021/09/16 06:26:49;;;;;;;19.08;10.45;;;12.50;86.90;;;;;;4982630;28;20062;-59
2021/09/16 06:29:16;;;;;;;22.02;11.35;;;12.60;87.00;;;;;;4980732;28;20042;-58
2021/09/16 06:31:43;;;;;;;23.92;12.15;;;12.70;87.00;;;;;;4976743;28;20046;-59
2021/09/16 06:34:10;;;;;;;18.75;11.55;;;12.80;86.90;;;;;;4985884;28;20054;-58
2021/09/16 06:36:37;;;;;;;21.75;10.38;;;12.80;86.70;;;;;;4980273;28;20047;-59
2021/09/16 06:39:04;;;;;;;22.02;13.02;;;12.90;86.70;;;;;;4987388;28;20058;-58
2021/09/16 06:41:31;;;;;;;20.45;12.43;;;12.90;86.90;;;;;;4977255;28;20065;-61
2021/09/16 06:43:57;;;;;;;23.20;11.80;;;12.90;87.00;;;;;;4987206;28;20054;-58
2021/09/16 06:46:24;;;;;;;26.13;13.90;;;12.90;87.20;;;;;;4989356;28;20216;-58
2021/09/16 06:49:00;;;;;;;27.74;13.44;;;12.90;87.20;;;;;;4957010;28;10001145;-58
2021/09/16 06:51:29;;;;;;;23.80;13.52;;;13.00;87.20;;;;;;4980710;28;20254;-59
2021/09/16 06:53:59;;;;;;;28.27;13.55;;;13.10;87.10;;;;;;4980660;28;20130;-58
2021/09/16 06:56:27;;;;;;;32.60;15.65;;;13.20;87.30;;;;;;4985621;28;20054;-60
2021/09/16 06:58:54;;;;;;;28.55;14.40;;;13.20;87.20;;;;;;4969195;28;20481;-57
2021/09/16 07:01:20;;;;;;;25.35;13.15;;;13.20;87.20;;;;;;4986920;28;20690;-58
2021/09/16 07:03:48;;;;;;;30.10;14.63;;;13.30;87.10;;;;;;4986709;28;20050;-56
2021/09/16 07:06:16;;;;;;;26.33;14.15;;;13.30;87.10;;;;;;4987143;28;20116;-57
2021/09/16 07:08:43;;;;;;;25.50;13.90;;;13.30;87.00;;;;;;4986687;28;20059;-57
2021/09/16 07:11:10;;;;;;;27.30;14.85;;;13.40;86.90;;;;;;4986747;28;20104;-57
2021/09/16 07:13:37;;;;;;;35.08;14.68;;;13.40;86.90;;;;;;4968435;28;20670;-56
2021/09/16 07:16:04;;;;;;;25.23;14.10;;;13.40;86.90;;;;;;4969932;28;20109;-57
2021/09/16 07:18:34;;;;;;;26.45;14.55;;;13.50;87.10;;;;;;4986317;28;20098;-56
2021/09/16 07:21:02;;;;;;;30.58;15.70;;;13.60;87.20;;;;;;4987313;28;20054;-57
2021/09/16 07:23:29;;;;;;;29.38;15.65;;;13.60;87.20;;;;;;4969789;28;20058;-58
2021/09/16 07:26:00;;;;;;;34.55;16.52;;;13.60;87.30;;;;;;4986303;28;20061;-58
2021/09/16 07:28:27;;;;;;;28.00;14.93;;;13.70;87.50;;;;;;4986288;28;20050;-57
2021/09/16 07:30:54;;;;;;;26.02;15.88;;;13.70;87.40;;;;;;4988662;28;20045;-58
2021/09/16 07:33:21;;;;;;;26.70;15.55;;;13.80;87.50;;;;;;4985590;28;20476;-58
2021/09/16 07:35:47;;;;;;;36.05;16.13;;;13.90;87.50;;;;;;4982592;28;20139;-56
2021/09/16 07:38:14;;;;;;;29.80;15.20;;;14.00;87.40;;;;;;4977602;28;20482;-58
2021/09/16 07:40:41;;;;;;;28.58;16.20;;;14.10;87.30;;;;;;4985784;28;20054;-55
2021/09/16 07:43:09;;;;;;;26.55;14.95;;;14.20;87.30;;;;;;4969299;28;20105;-62
2021/09/16 07:45:36;;;;;;;27.98;15.55;;;14.30;87.40;;;;;;4985634;28;20058;-58
2021/09/16 07:48:03;;;;;;;28.48;14.43;;;14.40;87.20;;;;;;4968354;28;20125;-58
2021/09/16 07:50:30;;;;;;;29.52;15.45;;;14.50;87.00;;;;;;4984760;28;20069;-59
2021/09/16 07:52:57;;;;;;;24.15;14.05;;;14.60;87.10;;;;;;4985748;28;20054;-57
2021/09/16 07:55:24;;;;;;;25.23;15.10;;;14.80;87.00;;;;;;4985527;28;20072;-56
2021/09/16 07:57:51;;;;;;;25.75;14.73;;;15.00;86.80;;;;;;4985834;28;20042;-58
2021/09/16 08:00:18;;;;;;;21.92;13.45;;;15.10;86.50;;;;;;4966033;28;20054;-58
2021/09/16 08:02:49;;;;;;;29.80;15.88;;;15.30;86.40;;;;;;4984551;28;20050;-58
2021/09/16 08:05:17;;;;;;;31.02;14.23;;;15.40;86.10;;;;;;4985430;28;20046;-58
2021/09/16 08:07:44;;;;;;;27.15;15.35;;;15.60;85.80;;;;;;4986034;28;20424;-58
2021/09/16 08:10:11;;;;;;;27.15;13.85;;;15.70;85.30;;;;;;4985978;28;20058;-59
2021/09/16 08:12:38;;;;;;;23.50;13.48;;;15.90;85.00;;;;;;4986629;28;20132;-58
2021/09/16 08:15:05;;;;;;;23.30;13.68;;;16.10;85.00;;;;;;4986378;28;20054;-58
2021/09/16 08:17:32;;;;;;;27.40;15.00;;;16.20;84.90;;;;;;4986725;28;20054;-58
2021/09/16 08:19:59;;;;;;;25.00;12.77;;;16.30;84.50;;;;;;4985794;28;20552;-58
2021/09/16 08:22:26;;;;;;;21.25;12.93;;;16.40;84.40;;;;;;4986466;28;20054;-58
2021/09/16 08:24:53;;;;;;;27.92;14.52;;;16.50;84.00;;;;;;4968767;28;20552;-58
2021/09/16 08:27:19;;;;;;;23.20;12.65;;;16.60;84.00;;;;;;4985893;28;20105;-58
2021/09/16 08:29:46;;;;;;;21.58;12.65;;;16.60;84.10;;;;;;4986420;28;20400;-58
2021/09/16 08:32:13;;;;;;;24.23;13.07;;;16.70;83.70;;;;;;4985765;28;20054;-57
2021/09/16 08:34:40;;;;;;;26.05;12.73;;;16.70;82.90;;;;;;4986283;28;20062;-58
2021/09/16 08:37:07;;;;;;;22.65;13.38;;;16.80;82.50;;;;;;4953230;28;20054;-58
2021/09/16 08:39:34;;;;;;;22.52;11.77;;;16.80;82.60;;;;;;4969113;28;20054;-59
2021/09/16 08:42:01;;;;;;;19.92;12.13;;;16.80;82.60;;;;;;4972609;28;20047;-57
2021/09/16 08:44:27;;;;;;;25.60;12.60;;;16.70;82.30;;;;;;4981231;28;20084;-58
2021/09/16 08:46:54;;;;;;;23.33;12.93;;;16.70;82.40;;;;;;4975450;28;20128;-57
2021/09/16 08:49:21;;;;;;;32.35;16.98;;;16.70;82.40;;;;;;4969251;28;20612;-58
2021/09/16 08:51:48;;;;;;;23.95;11.98;;;16.70;81.80;;;;;;4985493;28;20279;-58
2021/09/16 08:54:15;;;;;;;25.98;12.25;;;16.70;81.90;;;;;;4985814;28;20058;-59
2021/09/16 08:56:45;;;;;;;19.80;11.57;;;16.80;80.40;;;;;;4985424;28;20074;-59
2021/09/16 08:59:12;;;;;;;21.42;12.82;;;16.80;80.90;;;;;;4975099;28;20133;-59
2021/09/16 09:01:39;;;;;;;21.02;12.75;;;16.90;81.10;;;;;;4984770;28;20417;-59
2021/09/16 09:04:06;;;;;;;27.73;14.00;;;17.00;80.90;;;;;;4984996;28;20149;-58
2021/09/16 09:06:37;;;;;;;22.67;14.40;;;17.10;80.90;;;;;;4985002;28;20132;-58
2021/09/16 09:09:16;;;;;;;24.02;12.85;;;17.10;80.60;;;;;;4968222;28;20046;-58
2021/09/16 09:12:02;;;;;;;19.75;11.30;;;17.30;79.00;;;;;;4984680;28;20089;-58
2021/09/16 09:14:35;;;;;;;29.52;15.38;;;17.70;78.10;;;;;;4983216;28;20109;-58
2021/09/16 09:17:14;;;;;;;22.90;11.85;;;18.10;79.00;;;;;;4984589;28;20456;-58
2021/09/16 09:19:41;;;;;;;31.33;14.25;;;18.40;78.20;;;;;;4984765;28;20120;-58
2021/09/16 09:22:08;;;;;;;16.05;9.60;;;18.70;77.50;;;;;;4984948;28;20098;-58
2021/09/16 09:24:37;;;;;;;16.40;8.88;;;18.90;76.60;;;;;;4985033;28;20062;-59
2021/09/16 09:27:19;;;;;;;14.80;8.85;;;19.10;75.30;;;;;;4985150;28;20556;-59
2021/09/16 09:30:11;;;;;;;16.85;9.13;;;19.30;73.30;;;;;;4983712;28;20049;-59
2021/09/16 09:33:02;;;;;;;15.73;7.90;;;19.50;72.00;;;;;;4967103;28;20149;-59
2021/09/16 09:35:37;;;;;;;11.73;6.55;;;19.80;72.90;;;;;;4974109;28;20133;-59
2021/09/16 09:38:17;;;;;;;10.75;7.07;;;20.00;73.40;;;;;;4984310;28;20072;-59
2021/09/16 09:40:45;;;;;;;10.75;6.47;;;20.20;66.80;;;;;;4974215;28;20121;-59
2021/09/16 09:43:31;;;;;;;10.00;6.65;;;20.20;71.80;;;;;;4984378;28;20038;-58
2021/09/16 09:46:09;;;;;;;10.00;6.68;;;20.10;68.90;;;;;;4976929;28;20085;-59
2021/09/16 09:48:40;;;;;;;10.68;6.28;;;19.90;69.50;;;;;;4995104;28;20050;-59
2021/09/16 09:51:08;;;;;;;10.70;6.38;;;19.80;69.50;;;;;;4984198;28;20093;-59
2021/09/16 09:53:42;;;;;;;9.98;6.78;;;19.70;70.70;;;;;;4966566;28;20050;-59
2021/09/16 09:56:29;;;;;;;11.95;6.93;;;19.70;67.90;;;;;;4976650;28;20054;-59
2021/09/16 09:58:56;;;;;;;10.45;6.00;;;19.60;70.90;;;;;;4966236;28;20437;-58
2021/09/16 10:01:33;;;;;;;10.00;6.72;;;19.60;71.00;;;;;;4983858;28;20101;-58
2021/09/16 10:04:24;;;;;;;13.80;6.93;;;19.60;70.70;;;;;;4983743;28;20066;-58
2021/09/16 10:06:58;;;;;;;13.88;7.25;;;19.60;67.60;;;;;;4976774;28;20528;-57
2021/09/16 10:09:25;;;;;;;13.20;7.05;;;19.60;69.40;;;;;;4984224;28;20047;-58
2021/09/16 10:11:52;;;;;;;9.45;6.15;;;19.60;70.60;;;;;;4983728;28;20051;-57
2021/09/16 10:14:19;;;;;;;9.18;6.15;;;19.70;70.60;;;;;;4982896;28;20464;-58
2021/09/16 10:16:46;;;;;;;8.38;5.82;;;19.70;70.00;;;;;;4986999;28;20050;-57
2021/09/16 10:19:13;;;;;;;11.10;5.97;;;19.70;70.20;;;;;;4965630;28;20058;-58
2021/09/16 10:21:40;;;;;;;15.65;5.88;;;19.80;70.70;;;;;;4984002;28;20108;-58
2021/09/16 10:24:08;;;;;;;10.48;6.13;;;19.80;69.90;;;;;;4983197;28;20659;-58
2021/09/16 10:26:47;;;;;;;8.70;5.10;;;19.80;70.00;;;;;;4983111;28;20050;-58
2021/09/16 10:29:29;;;;;;;10.70;5.53;;;19.90;68.70;;;;;;4983088;28;20054;-59
2021/09/16 10:32:19;;;;;;;10.15;5.82;;;19.90;67.40;;;;;;4983232;28;20046;-56
2021/09/16 10:34:48;;;;;;;8.15;5.05;;;20.00;66.40;;;;;;4969775;28;20077;-58
2021/09/16 10:37:16;;;;;;;8.55;5.50;;;20.10;68.00;;;;;;4966377;28;20050;-58
2021/09/16 10:39:43;;;;;;;6.95;5.00;;;20.10;69.40;;;;;;4983541;28;20469;-58
2021/09/16 10:42:10;;;;;;;12.98;5.88;;;20.10;69.20;;;;;;4983673;28;20141;-58
2021/09/16 10:44:41;;;;;;;8.27;5.25;;;20.20;69.00;;;;;;4983166;28;20050;-58
2021/09/16 10:47:19;;;;;;;7.47;5.57;;;20.20;68.80;;;;;;4983481;28;20047;-58
2021/09/16 10:49:47;;;;;;;8.48;6.03;;;20.30;66.70;;;;;;4982850;28;20097;-57
2021/09/16 10:52:14;;;;;;;8.02;5.00;;;20.40;69.10;;;;;;4965811;28;20043;-59
2021/09/16 10:54:45;;;;;;;8.10;5.20;;;20.40;68.80;;;;;;4983477;28;20055;-57
2021/09/16 10:57:12;;;;;;;6.38;4.28;;;20.40;68.10;;;;;;4983620;28;20058;-58
2021/09/16 10:59:49;;;;;;;10.50;5.47;;;20.50;68.50;;;;;;4984012;28;20072;-57
2021/09/16 11:02:20;;;;;;;8.20;5.53;;;20.50;66.20;;;;;;4982771;28;20050;-58
2021/09/16 11:04:57;;;;;;;9.32;4.88;;;20.50;67.10;;;;;;4982288;28;20188;-58
2021/09/16 11:07:55;;;;;;;10.95;5.70;;;20.50;65.80;;;;;;4980411;28;20102;-58
2021/09/16 11:10:22;;;;;;;6.05;4.75;;;20.50;65.70;;;;;;4971273;28;20046;-58
2021/09/16 11:12:49;;;;;;;7.80;4.10;;;20.50;67.80;;;;;;4985548;28;20083;-57
2021/09/16 11:15:17;;;;;;;7.40;4.63;;;20.40;67.90;;;;;;4971682;28;20512;-58
2021/09/16 11:17:45;;;;;;;9.23;5.10;;;20.50;67.90;;;;;;4987895;28;20054;-59
2021/09/16 11:20:13;;;;;;;7.43;4.75;;;20.50;68.40;;;;;;4958038;28;20086;-59
2021/09/16 11:22:42;;;;;;;7.72;4.45;;;20.60;69.10;;;;;;4985355;28;20502;-58
2021/09/16 11:25:09;;;;;;;10.27;4.75;;;20.80;69.00;;;;;;4985934;28;20089;-58
2021/09/16 11:27:39;;;;;;;7.15;4.25;;;20.90;67.80;;;;;;4989164;28;20101;-56
2021/09/16 11:30:16;;;;;;;8.35;4.82;;;21.10;67.30;;;;;;4989872;28;20082;-61
2021/09/16 11:32:44;;;;;;;7.97;5.13;;;21.30;64.00;;;;;;4988662;28;20519;-58
2021/09/16 11:35:17;;;;;;;8.43;4.95;;;21.40;66.80;;;;;;4989785;28;20054;-58
2021/09/16 11:37:44;;;;;;;11.48;5.15;;;21.40;66.70;;;;;;4988931;28;20046;-58
2021/09/16 11:40:15;;;;;;;9.60;3.85;;;21.40;65.30;;;;;;4989193;28;20489;-57
2021/09/16 11:42:43;;;;;;;9.20;4.00;;;21.40;66.30;;;;;;4989992;28;20046;-58
2021/09/16 11:45:14;;;;;;;4.85;3.10;;;21.40;64.50;;;;;;4972259;28;20043;-58
2021/09/16 11:47:43;;;;;;;5.57;3.00;;;21.30;65.50;;;;;;4988699;28;20073;-58
2021/09/16 11:50:23;;;;;;;5.07;3.47;;;21.20;65.30;;;;;;4972436;28;20061;-59
2021/09/16 11:53:04;;;;;;;5.15;4.25;;;21.10;64.00;;;;;;4957405;28;20050;-57
2021/09/16 11:55:33;;;;;;;9.80;3.85;;;21.10;64.60;;;;;;4989001;28;20054;-58
2021/09/16 11:58:04;;;;;;;5.30;3.70;;;21.10;66.20;;;;;;4988234;28;20050;-57
2021/09/16 12:00:35;;;;;;;7.70;3.88;;;21.10;66.40;;;;;;4989252;28;20055;-59
2021/09/16 12:03:04;;;;;;;9.95;3.45;;;21.20;66.40;;;;;;4988809;28;20131;-58
2021/09/16 12:05:33;;;;;;;7.13;3.72;;;21.20;65.70;;;;;;4979409;28;20053;-58
2021/09/16 12:08:00;;;;;;;7.00;4.35;;;21.20;65.80;;;;;;4987077;28;20094;-58
2021/09/16 12:10:41;;;;;;;6.80;3.92;;;21.30;66.10;;;;;;4988797;28;20101;-58
2021/09/16 12:13:08;;;;;;;4.82;3.85;;;21.40;64.90;;;;;;4988307;28;20093;-58
2021/09/16 12:15:36;;;;;;;6.22;4.00;;;21.50;65.00;;;;;;4988346;28;20106;-58
2021/09/16 12:18:04;;;;;;;6.47;4.05;;;21.60;65.40;;;;;;4988553;28;20100;-58
2021/09/16 12:20:31;;;;;;;7.30;3.65;;;21.60;65.40;;;;;;4955196;28;20124;-59
2021/09/16 12:22:58;;;;;;;4.47;3.05;;;21.70;64.80;;;;;;4955609;28;20047;-59
2021/09/16 12:25:26;;;;;;;8.15;3.85;;;21.80;64.60;;;;;;4986490;28;20050;-58
2021/09/16 12:28:13;;;;;;;7.22;3.20;;;21.90;64.60;;;;;;4984960;28;20544;-58
2021/09/16 12:30:40;;;;;;;5.45;2.95;;;21.80;60.30;;;;;;4985981;28;20062;-58
2021/09/16 12:33:29;;;;;;;8.38;3.38;;;21.60;62.60;;;;;;4986428;28;20104;-56
2021/09/16 12:36:19;;;;;;;6.30;3.35;;;21.70;60.60;;;;;;4985944;28;20609;-57
2021/09/16 12:38:51;;;;;;;6.55;3.47;;;21.90;61.20;;;;;;4985239;28;20042;-59
2021/09/16 12:41:25;;;;;;;7.15;4.50;;;21.80;62.70;;;;;;4986049;28;20101;-58